Terminal Aerodrome Forecast
Issued by NWS Sioux Falls, SD

Home | Current Version | Previous Version | Text Only | Print | Product List | Glossary On
Versions: 1 2 3 4 5 6 7 8 9 10 11 12 13 14
000
FTUS43 KFSD 021150
TAFFSD
TAF
KFSD 021150Z 0212/0312 12008KT P6SM SCT035 BKN100
      TEMPO 0216/0219 -SHRA OVC060
     FM022200 15007KT P6SM OVC050
     FM030100 15006KT P6SM BKN040
     FM030700 16004KT P6SM BKN060
     FM030900 14004KT 5SM BR SCT060=

USA.gov is the U.S. government's official web portal to all federal, state and local government web resources and services.